sensor_id;sensor_type;location;lat;lon;timestamp;temperature;humidity
16267;DHT22;8241;48.786;9.250;2023-04-25T00:00:56;10.00;99.90
16267;DHT22;8241;48.786;9.250;2023-04-25T00:03:25;10.00;99.90
16267;DHT22;8241;48.786;9.250;2023-04-25T00:05:53;10.00;99.90
16267;DHT22;8241;48.786;9.250;2023-04-25T00:08:25;10.00;99.90
16267;DHT22;8241;48.786;9.250;2023-04-25T00:10:52;9.90;99.90
16267;DHT22;8241;48.786;9.250;2023-04-25T00:13:19;9.90;99.90
16267;DHT22;8241;48.786;9.250;2023-04-25T00:15:47;9.90;99.90
16267;DHT22;8241;48.786;9.250;2023-04-25T00:18:14;9.90;99.90
16267;DHT22;8241;48.786;9.250;2023-04-25T00:20:46;9.90;99.90
16267;DHT22;8241;48.786;9.250;2023-04-25T00:23:13;9.90;99.90
16267;DHT22;8241;48.786;9.250;2023-04-25T00:25:43;9.90;99.90
16267;DHT22;8241;48.786;9.250;2023-04-25T00:28:11;9.80;99.90
16267;DHT22;8241;48.786;9.250;2023-04-25T00:30:39;9.80;99.90
16267;DHT22;8241;48.786;9.250;2023-04-25T00:33:07;9.70;99.90
16267;DHT22;8241;48.786;9.250;2023-04-25T00:35:34;9.80;99.90
16267;DHT22;8241;48.786;9.250;2023-04-25T00:38:03;9.70;99.90
16267;DHT22;8241;48.786;9.250;2023-04-25T00:40:30;9.80;99.90
16267;DHT22;8241;48.786;9.250;2023-04-25T00:42:57;9.90;99.90
16267;DHT22;8241;48.786;9.250;2023-04-25T00:45:27;10.00;99.90
16267;DHT22;8241;48.786;9.250;2023-04-25T00:47:56;10.00;99.90
16267;DHT22;8241;48.786;9.250;2023-04-25T00:50:26;10.00;99.90
16267;DHT22;8241;48.786;9.250;2023-04-25T00:52:53;9.80;99.90
16267;DHT22;8241;48.786;9.250;2023-04-25T00:55:30;9.70;99.90
16267;DHT22;8241;48.786;9.250;2023-04-25T00:58:08;9.60;99.90
16267;DHT22;8241;48.786;9.250;2023-04-25T01:00:36;9.60;99.90
16267;DHT22;8241;48.786;9.250;2023-04-25T01:03:25;9.60;99.90
16267;DHT22;8241;48.786;9.250;2023-04-25T01:05:54;9.50;99.90
16267;DHT22;8241;48.786;9.250;2023-04-25T01:08:24;9.50;99.90
16267;DHT22;8241;48.786;9.250;2023-04-25T01:10:52;9.40;99.90
16267;DHT22;8241;48.786;9.250;2023-04-25T01:13:25;9.40;99.90
16267;DHT22;8241;48.786;9.250;2023-04-25T01:15:52;9.50;99.90
16267;DHT22;8241;48.786;9.250;2023-04-25T01:18:19;9.50;99.90
16267;DHT22;8241;48.786;9.250;2023-04-25T01:20:51;9.50;99.90
16267;DHT22;8241;48.786;9.250;2023-04-25T01:23:21;9.40;99.90
16267;DHT22;8241;48.786;9.250;2023-04-25T01:25:49;9.40;99.90
16267;DHT22;8241;48.786;9.250;2023-04-25T01:28:16;9.40;99.90
16267;DHT22;8241;48.786;9.250;2023-04-25T01:30:46;9.40;99.90
16267;DHT22;8241;48.786;9.250;2023-04-25T01:33:14;9.30;99.90
16267;DHT22;8241;48.786;9.250;2023-04-25T01:35:43;9.40;99.90
16267;DHT22;8241;48.786;9.250;2023-04-25T01:38:11;9.40;99.90
16267;DHT22;8241;48.786;9.250;2023-04-25T01:40:40;9.40;99.90
16267;DHT22;8241;48.786;9.250;2023-04-25T01:43:08;9.40;99.90
16267;DHT22;8241;48.786;9.250;2023-04-25T01:45:37;9.40;99.90
16267;DHT22;8241;48.786;9.250;2023-04-25T01:48:05;9.30;99.90
16267;DHT22;8241;48.786;9.250;2023-04-25T01:50:35;9.30;99.90
16267;DHT22;8241;48.786;9.250;2023-04-25T01:53:02;9.30;99.90
16267;DHT22;8241;48.786;9.250;2023-04-25T01:55:30;9.20;99.90
16267;DHT22;8241;48.786;9.250;2023-04-25T01:58:05;9.20;99.90
16267;DHT22;8241;48.786;9.250;2023-04-25T02:01:00;9.20;99.90
16267;DHT22;8241;48.786;9.250;2023-04-25T02:03:34;9.10;99.90
16267;DHT22;8241;48.786;9.250;2023-04-25T02:06:08;9.10;99.90
16267;DHT22;8241;48.786;9.250;2023-04-25T02:08:41;9.10;99.90
16267;DHT22;8241;48.786;9.250;2023-04-25T02:11:10;9.10;99.90
16267;DHT22;8241;48.786;9.250;2023-04-25T02:13:45;9.10;99.90
16267;DHT22;8241;48.786;9.250;2023-04-25T02:16:24;9.10;99.90
16267;DHT22;8241;48.786;9.250;2023-04-25T02:18:51;9.10;99.90
16267;DHT22;8241;48.786;9.250;2023-04-25T02:21:18;9.10;99.90
16267;DHT22;8241;48.786;9.250;2023-04-25T02:23:46;9.10;99.90
16267;DHT22;8241;48.786;9.250;2023-04-25T02:26:14;9.20;99.90
16267;DHT22;8241;48.786;9.250;2023-04-25T02:28:41;9.10;99.90
16267;DHT22;8241;48.786;9.250;2023-04-25T02:31:10;9.10;99.90
16267;DHT22;8241;48.786;9.250;2023-04-25T02:33:37;9.20;99.90
16267;DHT22;8241;48.786;9.250;2023-04-25T02:36:06;9.20;99.90
16267;DHT22;8241;48.786;9.250;2023-04-25T02:38:36;9.30;99.90
16267;DHT22;8241;48.786;9.250;2023-04-25T02:41:04;9.20;99.90
16267;DHT22;8241;48.786;9.250;2023-04-25T02:43:31;9.20;99.90
16267;DHT22;8241;48.786;9.250;2023-04-25T02:45:58;9.30;99.90
16267;DHT22;8241;48.786;9.250;2023-04-25T02:48:27;9.30;99.90
16267;DHT22;8241;48.786;9.250;2023-04-25T02:50:55;9.30;99.90
16267;DHT22;8241;48.786;9.250;2023-04-25T02:53:22;9.40;99.90
16267;DHT22;8241;48.786;9.250;2023-04-25T02:55:54;9.50;99.90
16267;DHT22;8241;48.786;9.250;2023-04-25T02:58:24;9.50;99.90
16267;DHT22;8241;48.786;9.250;2023-04-25T03:00:53;9.60;99.90
16267;DHT22;8241;48.786;9.250;2023-04-25T03:03:20;9.60;99.90
16267;DHT22;8241;48.786;9.250;2023-04-25T03:05:52;9.50;99.90
16267;DHT22;8241;48.786;9.250;2023-04-25T03:08:28;9.50;99.90
16267;DHT22;8241;48.786;9.250;2023-04-25T03:11:02;9.50;99.90
16267;DHT22;8241;48.786;9.250;2023-04-25T03:13:35;9.50;99.90
16267;DHT22;8241;48.786;9.250;2023-04-25T03:16:05;9.50;99.90
16267;DHT22;8241;48.786;9.250;2023-04-25T03:18:34;9.50;99.90
16267;DHT22;8241;48.786;9.250;2023-04-25T03:21:04;9.60;99.90
16267;DHT22;8241;48.786;9.250;2023-04-25T03:23:31;9.70;99.90
16267;DHT22;8241;48.786;9.250;2023-04-25T03:25:58;9.70;99.90
16267;DHT22;8241;48.786;9.250;2023-04-25T03:28:25;9.70;99.90
16267;DHT22;8241;48.786;9.250;2023-04-25T03:30:56;9.70;99.90
16267;DHT22;8241;48.786;9.250;2023-04-25T03:33:24;9.60;99.90
16267;DHT22;8241;48.786;9.250;2023-04-25T03:35:51;9.60;99.90
16267;DHT22;8241;48.786;9.250;2023-04-25T03:38:20;9.50;99.90
16267;DHT22;8241;48.786;9.250;2023-04-25T03:40:47;9.40;99.90
16267;DHT22;8241;48.786;9.250;2023-04-25T03:43:20;9.50;99.90
16267;DHT22;8241;48.786;9.250;2023-04-25T03:45:59;9.50;99.90
16267;DHT22;8241;48.786;9.250;2023-04-25T03:48:26;9.60;99.90
16267;DHT22;8241;48.786;9.250;2023-04-25T03:50:56;9.60;99.90
16267;DHT22;8241;48.786;9.250;2023-04-25T03:53:25;9.60;99.90
16267;DHT22;8241;48.786;9.250;2023-04-25T03:56:11;9.60;99.90
16267;DHT22;8241;48.786;9.250;2023-04-25T03:58:39;9.60;99.90
16267;DHT22;8241;48.786;9.250;2023-04-25T04:01:07;9.60;99.90
16267;DHT22;8241;48.786;9.250;2023-04-25T04:03:43;9.60;99.90
16267;DHT22;8241;48.786;9.250;2023-04-25T04:06:21;9.60;99.90
16267;DHT22;8241;48.786;9.250;2023-04-25T04:08:56;9.50;99.90
16267;DHT22;8241;48.786;9.250;2023-04-25T04:11:25;9.50;99.90
16267;DHT22;8241;48.786;9.250;2023-04-25T04:14:15;9.40;99.90
16267;DHT22;8241;48.786;9.250;2023-04-25T04:16:45;9.30;99.90
16267;DHT22;8241;48.786;9.250;2023-04-25T04:19:12;9.30;99.90
16267;DHT22;8241;48.786;9.250;2023-04-25T04:21:44;9.40;99.90
16267;DHT22;8241;48.786;9.250;2023-04-25T04:24:13;9.40;99.90
16267;DHT22;8241;48.786;9.250;2023-04-25T04:27:00;9.30;99.90
16267;DHT22;8241;48.786;9.250;2023-04-25T04:29:35;9.30;99.90
16267;DHT22;8241;48.786;9.250;2023-04-25T04:32:14;9.10;99.90
16267;DHT22;8241;48.786;9.250;2023-04-25T04:34:42;9.00;99.90
16267;DHT22;8241;48.786;9.250;2023-04-25T04:37:11;9.00;99.90
16267;DHT22;8241;48.786;9.250;2023-04-25T04:39:45;8.90;99.90
16267;DHT22;8241;48.786;9.250;2023-04-25T04:42:28;8.90;99.90
16267;DHT22;8241;48.786;9.250;2023-04-25T04:45:28;8.90;99.90
16267;DHT22;8241;48.786;9.250;2023-04-25T04:48:08;9.00;99.90
16267;DHT22;8241;48.786;9.250;2023-04-25T04:50:56;9.10;99.90
16267;DHT22;8241;48.786;9.250;2023-04-25T04:53:55;9.30;99.90
16267;DHT22;8241;48.786;9.250;2023-04-25T04:56:58;9.40;99.90
16267;DHT22;8241;48.786;9.250;2023-04-25T04:59:41;9.50;99.90
16267;DHT22;8241;48.786;9.250;2023-04-25T05:02:28;9.60;99.90
16267;DHT22;8241;48.786;9.250;2023-04-25T05:05:27;9.60;99.90
16267;DHT22;8241;48.786;9.250;2023-04-25T05:08:12;9.50;99.90
16267;DHT22;8241;48.786;9.250;2023-04-25T05:11:01;9.20;99.90
16267;DHT22;8241;48.786;9.250;2023-04-25T05:13:54;9.00;99.90
16267;DHT22;8241;48.786;9.250;2023-04-25T05:16:42;8.90;99.90
16267;DHT22;8241;48.786;9.250;2023-04-25T05:19:34;8.80;99.90
16267;DHT22;8241;48.786;9.250;2023-04-25T05:22:21;8.80;99.90
16267;DHT22;8241;48.786;9.250;2023-04-25T05:25:07;8.80;99.90
16267;DHT22;8241;48.786;9.250;2023-04-25T05:28:04;8.90;99.90
16267;DHT22;8241;48.786;9.250;2023-04-25T05:30:45;9.00;99.90
16267;DHT22;8241;48.786;9.250;2023-04-25T05:33:18;9.10;99.90
16267;DHT22;8241;48.786;9.250;2023-04-25T05:35:46;9.10;99.90
16267;DHT22;8241;48.786;9.250;2023-04-25T05:38:14;9.20;99.90
16267;DHT22;8241;48.786;9.250;2023-04-25T05:40:59;9.20;99.90
16267;DHT22;8241;48.786;9.250;2023-04-25T05:43:53;9.20;99.90
16267;DHT22;8241;48.786;9.250;2023-04-25T05:46:26;9.20;99.90
16267;DHT22;8241;48.786;9.250;2023-04-25T05:49:11;9.30;99.90
16267;DHT22;8241;48.786;9.250;2023-04-25T05:51:57;9.30;99.90
16267;DHT22;8241;48.786;9.250;2023-04-25T05:54:50;9.30;99.90
16267;DHT22;8241;48.786;9.250;2023-04-25T05:57:22;9.40;99.90
16267;DHT22;8241;48.786;9.250;2023-04-25T05:59:50;9.40;99.90
16267;DHT22;8241;48.786;9.250;2023-04-25T06:02:20;9.40;99.90
16267;DHT22;8241;48.786;9.250;2023-04-25T06:04:51;9.30;99.90
16267;DHT22;8241;48.786;9.250;2023-04-25T06:07:18;9.20;99.90
16267;DHT22;8241;48.786;9.250;2023-04-25T06:09:46;9.10;99.90
16267;DHT22;8241;48.786;9.250;2023-04-25T06:12:13;9.20;99.90
16267;DHT22;8241;48.786;9.250;2023-04-25T06:14:41;9.10;99.90
16267;DHT22;8241;48.786;9.250;2023-04-25T06:17:08;9.10;99.90
16267;DHT22;8241;48.786;9.250;2023-04-25T06:19:36;9.20;99.90
16267;DHT22;8241;48.786;9.250;2023-04-25T06:22:03;9.10;99.90
16267;DHT22;8241;48.786;9.250;2023-04-25T06:24:32;9.10;99.90
16267;DHT22;8241;48.786;9.250;2023-04-25T06:27:02;9.20;99.90
16267;DHT22;8241;48.786;9.250;2023-04-25T06:29:29;9.20;99.90
16267;DHT22;8241;48.786;9.250;2023-04-25T06:31:57;9.30;99.90
16267;DHT22;8241;48.786;9.250;2023-04-25T06:34:28;9.40;99.90
16267;DHT22;8241;48.786;9.250;2023-04-25T06:36:57;9.60;99.90
16267;DHT22;8241;48.786;9.250;2023-04-25T06:39:24;9.60;99.90
16267;DHT22;8241;48.786;9.250;2023-04-25T06:41:51;9.70;99.90
16267;DHT22;8241;48.786;9.250;2023-04-25T06:44:57;9.70;99.90
16267;DHT22;8241;48.786;9.250;2023-04-25T06:47:27;9.80;99.90
16267;DHT22;8241;48.786;9.250;2023-04-25T06:49:55;9.80;99.90
16267;DHT22;8241;48.786;9.250;2023-04-25T06:52:24;9.80;99.90
16267;DHT22;8241;48.786;9.250;2023-04-25T06:54:52;9.90;99.90
16267;DHT22;8241;48.786;9.250;2023-04-25T06:57:41;9.90;99.90
16267;DHT22;8241;48.786;9.250;2023-04-25T07:00:37;10.00;99.90
16267;DHT22;8241;48.786;9.250;2023-04-25T07:03:04;10.00;99.90
16267;DHT22;8241;48.786;9.250;2023-04-25T07:05:32;10.00;99.90
16267;DHT22;8241;48.786;9.250;2023-04-25T07:08:01;10.00;99.90
16267;DHT22;8241;48.786;9.250;2023-04-25T07:10:28;10.10;99.90
16267;DHT22;8241;48.786;9.250;2023-04-25T07:12:56;10.10;99.90
16267;DHT22;8241;48.786;9.250;2023-04-25T07:15:23;10.10;99.90
16267;DHT22;8241;48.786;9.250;2023-04-25T07:17:51;10.10;99.90
16267;DHT22;8241;48.786;9.250;2023-04-25T07:20:18;10.00;99.90
16267;DHT22;8241;48.786;9.250;2023-04-25T07:22:45;10.00;99.90
16267;DHT22;8241;48.786;9.250;2023-04-25T07:25:14;10.00;99.90
16267;DHT22;8241;48.786;9.250;2023-04-25T07:27:41;9.90;99.90
16267;DHT22;8241;48.786;9.250;2023-04-25T07:30:13;9.90;99.90
16267;DHT22;8241;48.786;9.250;2023-04-25T07:32:40;9.90;99.90
16267;DHT22;8241;48.786;9.250;2023-04-25T07:35:08;9.90;99.90
16267;DHT22;8241;48.786;9.250;2023-04-25T07:37:36;9.90;99.90
16267;DHT22;8241;48.786;9.250;2023-04-25T07:40:16;9.90;99.90
16267;DHT22;8241;48.786;9.250;2023-04-25T07:42:48;9.90;99.90
16267;DHT22;8241;48.786;9.250;2023-04-25T07:45:19;10.00;99.90
16267;DHT22;8241;48.786;9.250;2023-04-25T07:47:46;10.00;99.90
16267;DHT22;8241;48.786;9.250;2023-04-25T07:50:13;10.00;99.90
16267;DHT22;8241;48.786;9.250;2023-04-25T07:52:41;10.00;99.90
16267;DHT22;8241;48.786;9.250;2023-04-25T07:55:19;10.00;99.90
16267;DHT22;8241;48.786;9.250;2023-04-25T07:57:58;10.00;99.90
16267;DHT22;8241;48.786;9.250;2023-04-25T08:00:28;9.90;99.90
16267;DHT22;8241;48.786;9.250;2023-04-25T08:03:15;9.90;99.90
16267;DHT22;8241;48.786;9.250;2023-04-25T08:05:43;9.90;99.90
16267;DHT22;8241;48.786;9.250;2023-04-25T08:08:11;9.80;99.90
16267;DHT22;8241;48.786;9.250;2023-04-25T08:10:41;9.70;99.90
16267;DHT22;8241;48.786;9.250;2023-04-25T08:13:09;9.70;99.90
16267;DHT22;8241;48.786;9.250;2023-04-25T08:15:36;9.60;99.90
16267;DHT22;8241;48.786;9.250;2023-04-25T08:18:06;9.60;99.90
16267;DHT22;8241;48.786;9.250;2023-04-25T08:20:33;9.60;99.90
16267;DHT22;8241;48.786;9.250;2023-04-25T08:23:04;9.50;99.90
16267;DHT22;8241;48.786;9.250;2023-04-25T08:25:48;9.60;99.90
16267;DHT22;8241;48.786;9.250;2023-04-25T08:28:19;9.60;99.90
16267;DHT22;8241;48.786;9.250;2023-04-25T08:30:47;9.50;99.90
16267;DHT22;8241;48.786;9.250;2023-04-25T08:33:15;9.60;99.90
16267;DHT22;8241;48.786;9.250;2023-04-25T08:36:00;9.60;99.90
16267;DHT22;8241;48.786;9.250;2023-04-25T08:38:28;9.70;99.90
16267;DHT22;8241;48.786;9.250;2023-04-25T08:40:57;9.60;99.90
16267;DHT22;8241;48.786;9.250;2023-04-25T08:43:29;9.50;99.90
16267;DHT22;8241;48.786;9.250;2023-04-25T08:45:59;9.50;99.90
16267;DHT22;8241;48.786;9.250;2023-04-25T08:48:44;9.50;99.90
16267;DHT22;8241;48.786;9.250;2023-04-25T08:51:18;9.30;99.90
16267;DHT22;8241;48.786;9.250;2023-04-25T08:53:51;9.20;99.90
16267;DHT22;8241;48.786;9.250;2023-04-25T08:56:21;9.20;99.90
16267;DHT22;8241;48.786;9.250;2023-04-25T08:58:49;9.20;99.90
16267;DHT22;8241;48.786;9.250;2023-04-25T09:01:17;9.20;99.90
16267;DHT22;8241;48.786;9.250;2023-04-25T09:03:50;9.20;99.90
16267;DHT22;8241;48.786;9.250;2023-04-25T09:06:18;9.20;99.90
16267;DHT22;8241;48.786;9.250;2023-04-25T09:08:50;9.30;99.90
16267;DHT22;8241;48.786;9.250;2023-04-25T09:11:17;9.30;99.90
16267;DHT22;8241;48.786;9.250;2023-04-25T09:13:48;9.30;99.90
16267;DHT22;8241;48.786;9.250;2023-04-25T09:16:23;9.20;99.90
16267;DHT22;8241;48.786;9.250;2023-04-25T09:19:21;9.00;99.90
16267;DHT22;8241;48.786;9.250;2023-04-25T09:21:50;8.90;99.90
16267;DHT22;8241;48.786;9.250;2023-04-25T09:24:19;8.90;99.90
16267;DHT22;8241;48.786;9.250;2023-04-25T09:26:56;8.80;99.90
16267;DHT22;8241;48.786;9.250;2023-04-25T09:29:30;8.70;99.90
16267;DHT22;8241;48.786;9.250;2023-04-25T09:32:14;8.70;99.90
16267;DHT22;8241;48.786;9.250;2023-04-25T09:34:43;8.60;99.90
16267;DHT22;8241;48.786;9.250;2023-04-25T09:37:17;8.60;99.90
16267;DHT22;8241;48.786;9.250;2023-04-25T09:40:08;8.50;99.90
16267;DHT22;8241;48.786;9.250;2023-04-25T09:42:53;8.50;99.90
16267;DHT22;8241;48.786;9.250;2023-04-25T09:45:22;8.50;99.90
16267;DHT22;8241;48.786;9.250;2023-04-25T09:47:55;8.50;99.90
16267;DHT22;8241;48.786;9.250;2023-04-25T09:50:26;8.40;99.90
16267;DHT22;8241;48.786;9.250;2023-04-25T09:53:03;8.40;99.90
16267;DHT22;8241;48.786;9.250;2023-04-25T09:55:45;8.30;99.90
16267;DHT22;8241;48.786;9.250;2023-04-25T09:58:14;8.30;99.90
16267;DHT22;8241;48.786;9.250;2023-04-25T10:00:43;8.40;99.90
16267;DHT22;8241;48.786;9.250;2023-04-25T10:03:24;8.30;99.90
16267;DHT22;8241;48.786;9.250;2023-04-25T10:06:09;8.20;99.90
16267;DHT22;8241;48.786;9.250;2023-04-25T10:08:38;8.20;99.90
16267;DHT22;8241;48.786;9.250;2023-04-25T10:11:08;8.20;99.90
16267;DHT22;8241;48.786;9.250;2023-04-25T10:13:36;8.30;99.90
16267;DHT22;8241;48.786;9.250;2023-04-25T10:16:05;8.30;99.90
16267;DHT22;8241;48.786;9.250;2023-04-25T10:18:32;8.10;99.90
16267;DHT22;8241;48.786;9.250;2023-04-25T10:21:01;8.20;99.90
16267;DHT22;8241;48.786;9.250;2023-04-25T10:23:30;8.20;99.90
16267;DHT22;8241;48.786;9.250;2023-04-25T10:25:58;8.20;99.90
16267;DHT22;8241;48.786;9.250;2023-04-25T10:28:25;7.70;99.90
16267;DHT22;8241;48.786;9.250;2023-04-25T10:30:57;7.80;99.90
16267;DHT22;8241;48.786;9.250;2023-04-25T10:33:36;7.90;99.90
16267;DHT22;8241;48.786;9.250;2023-04-25T10:36:11;7.80;99.90
16267;DHT22;8241;48.786;9.250;2023-04-25T10:38:39;7.80;99.90
16267;DHT22;8241;48.786;9.250;2023-04-25T10:41:08;7.80;99.90
16267;DHT22;8241;48.786;9.250;2023-04-25T10:43:37;7.80;99.90
16267;DHT22;8241;48.786;9.250;2023-04-25T10:46:13;7.70;99.90
16267;DHT22;8241;48.786;9.250;2023-04-25T10:48:49;7.80;99.90
16267;DHT22;8241;48.786;9.250;2023-04-25T10:51:19;7.80;99.90
16267;DHT22;8241;48.786;9.250;2023-04-25T10:53:46;7.90;99.90
16267;DHT22;8241;48.786;9.250;2023-04-25T10:56:17;8.00;99.90
16267;DHT22;8241;48.786;9.250;2023-04-25T10:58:44;7.90;99.90
16267;DHT22;8241;48.786;9.250;2023-04-25T11:01:13;8.00;99.90
16267;DHT22;8241;48.786;9.250;2023-04-25T11:03:42;7.90;99.90
16267;DHT22;8241;48.786;9.250;2023-04-25T11:06:20;7.80;99.90
16267;DHT22;8241;48.786;9.250;2023-04-25T11:08:50;7.90;99.90
16267;DHT22;8241;48.786;9.250;2023-04-25T11:11:18;7.90;99.90
16267;DHT22;8241;48.786;9.250;2023-04-25T11:13:48;7.90;99.90
16267;DHT22;8241;48.786;9.250;2023-04-25T11:16:15;7.80;99.90
16267;DHT22;8241;48.786;9.250;2023-04-25T11:18:42;7.80;99.90
16267;DHT22;8241;48.786;9.250;2023-04-25T11:21:11;7.80;99.90
16267;DHT22;8241;48.786;9.250;2023-04-25T11:23:41;7.90;99.90
16267;DHT22;8241;48.786;9.250;2023-04-25T11:26:12;8.00;99.90
16267;DHT22;8241;48.786;9.250;2023-04-25T11:28:45;7.80;99.90
16267;DHT22;8241;48.786;9.250;2023-04-25T11:31:12;7.90;99.90
16267;DHT22;8241;48.786;9.250;2023-04-25T11:33:39;7.80;99.90
16267;DHT22;8241;48.786;9.250;2023-04-25T11:36:12;7.80;99.90
16267;DHT22;8241;48.786;9.250;2023-04-25T11:38:39;7.80;99.90
16267;DHT22;8241;48.786;9.250;2023-04-25T11:41:06;7.60;99.90
16267;DHT22;8241;48.786;9.250;2023-04-25T11:43:33;7.60;99.90
16267;DHT22;8241;48.786;9.250;2023-04-25T11:46:00;7.70;99.90
16267;DHT22;8241;48.786;9.250;2023-04-25T11:48:27;7.80;99.90
16267;DHT22;8241;48.786;9.250;2023-04-25T11:50:55;7.90;99.90
16267;DHT22;8241;48.786;9.250;2023-04-25T11:53:24;7.90;99.90
16267;DHT22;8241;48.786;9.250;2023-04-25T11:55:54;7.90;99.90
16267;DHT22;8241;48.786;9.250;2023-04-25T11:58:21;8.10;99.90
16267;DHT22;8241;48.786;9.250;2023-04-25T12:00:49;8.20;99.90
16267;DHT22;8241;48.786;9.250;2023-04-25T12:03:18;8.40;99.90
16267;DHT22;8241;48.786;9.250;2023-04-25T12:05:46;8.40;99.90
16267;DHT22;8241;48.786;9.250;2023-04-25T12:08:18;8.30;99.90
16267;DHT22;8241;48.786;9.250;2023-04-25T12:10:48;8.30;99.90
16267;DHT22;8241;48.786;9.250;2023-04-25T12:13:23;8.50;99.90
16267;DHT22;8241;48.786;9.250;2023-04-25T12:15:52;8.40;99.90
16267;DHT22;8241;48.786;9.250;2023-04-25T12:18:24;8.50;99.90
16267;DHT22;8241;48.786;9.250;2023-04-25T12:20:56;8.50;99.90
16267;DHT22;8241;48.786;9.250;2023-04-25T12:23:28;8.60;99.90
16267;DHT22;8241;48.786;9.250;2023-04-25T12:25:57;8.50;99.90
16267;DHT22;8241;48.786;9.250;2023-04-25T12:28:25;8.60;99.90
16267;DHT22;8241;48.786;9.250;2023-04-25T12:31:03;8.70;99.90
16267;DHT22;8241;48.786;9.250;2023-04-25T12:33:33;8.60;99.90
16267;DHT22;8241;48.786;9.250;2023-04-25T12:36:05;8.60;99.90
16267;DHT22;8241;48.786;9.250;2023-04-25T12:38:37;8.60;99.90
16267;DHT22;8241;48.786;9.250;2023-04-25T12:41:08;8.40;99.90
16267;DHT22;8241;48.786;9.250;2023-04-25T12:43:35;8.20;99.90
16267;DHT22;8241;48.786;9.250;2023-04-25T12:46:04;8.00;99.90
16267;DHT22;8241;48.786;9.250;2023-04-25T12:48:31;7.90;99.90
16267;DHT22;8241;48.786;9.250;2023-04-25T12:50:59;7.80;99.90
16267;DHT22;8241;48.786;9.250;2023-04-25T12:53:26;7.90;99.90
16267;DHT22;8241;48.786;9.250;2023-04-25T12:55:53;7.70;99.90
16267;DHT22;8241;48.786;9.250;2023-04-25T12:58:23;7.60;99.90
16267;DHT22;8241;48.786;9.250;2023-04-25T13:00:50;7.50;99.90
16267;DHT22;8241;48.786;9.250;2023-04-25T13:03:18;7.60;99.90
16267;DHT22;8241;48.786;9.250;2023-04-25T13:05:46;8.10;99.90
16267;DHT22;8241;48.786;9.250;2023-04-25T13:08:13;8.30;99.90
16267;DHT22;8241;48.786;9.250;2023-04-25T13:10:41;8.30;99.90
16267;DHT22;8241;48.786;9.250;2023-04-25T13:13:08;8.30;99.90
16267;DHT22;8241;48.786;9.250;2023-04-25T13:15:37;8.90;99.90
16267;DHT22;8241;48.786;9.250;2023-04-25T13:18:05;9.00;99.90
16267;DHT22;8241;48.786;9.250;2023-04-25T13:20:32;9.20;99.90
16267;DHT22;8241;48.786;9.250;2023-04-25T13:22:59;9.00;99.90
16267;DHT22;8241;48.786;9.250;2023-04-25T13:25:26;8.90;99.90
16267;DHT22;8241;48.786;9.250;2023-04-25T13:27:52;8.40;99.90
16267;DHT22;8241;48.786;9.250;2023-04-25T13:30:19;8.80;99.90
16267;DHT22;8241;48.786;9.250;2023-04-25T13:32:48;9.10;99.90
16267;DHT22;8241;48.786;9.250;2023-04-25T13:35:14;9.20;99.90
16267;DHT22;8241;48.786;9.250;2023-04-25T13:37:41;9.40;99.90
16267;DHT22;8241;48.786;9.250;2023-04-25T13:40:10;9.70;99.90
16267;DHT22;8241;48.786;9.250;2023-04-25T13:42:38;10.00;99.90
16267;DHT22;8241;48.786;9.250;2023-04-25T13:45:09;10.20;99.90
16267;DHT22;8241;48.786;9.250;2023-04-25T13:47:36;10.00;99.90
16267;DHT22;8241;48.786;9.250;2023-04-25T13:50:07;9.90;99.90
16267;DHT22;8241;48.786;9.250;2023-04-25T13:52:34;9.80;99.90
16267;DHT22;8241;48.786;9.250;2023-04-25T13:55:01;9.90;99.90
16267;DHT22;8241;48.786;9.250;2023-04-25T13:57:30;9.90;99.90
16267;DHT22;8241;48.786;9.250;2023-04-25T13:59:57;9.70;99.90
16267;DHT22;8241;48.786;9.250;2023-04-25T14:02:24;9.50;99.90
16267;DHT22;8241;48.786;9.250;2023-04-25T14:04:51;9.60;99.90
16267;DHT22;8241;48.786;9.250;2023-04-25T14:07:23;9.70;99.90
16267;DHT22;8241;48.786;9.250;2023-04-25T14:09:51;10.00;99.90
16267;DHT22;8241;48.786;9.250;2023-04-25T14:12:18;10.30;99.90
16267;DHT22;8241;48.786;9.250;2023-04-25T14:14:45;10.40;99.90
16267;DHT22;8241;48.786;9.250;2023-04-25T14:17:12;10.60;99.90
16267;DHT22;8241;48.786;9.250;2023-04-25T14:19:39;10.30;99.90
16267;DHT22;8241;48.786;9.250;2023-04-25T14:22:08;10.10;99.90
16267;DHT22;8241;48.786;9.250;2023-04-25T14:24:38;10.00;99.90
16267;DHT22;8241;48.786;9.250;2023-04-25T14:27:05;9.90;99.90
16267;DHT22;8241;48.786;9.250;2023-04-25T14:29:33;10.20;99.90
16267;DHT22;8241;48.786;9.250;2023-04-25T14:32:00;10.50;99.90
16267;DHT22;8241;48.786;9.250;2023-04-25T14:34:27;10.90;99.90
16267;DHT22;8241;48.786;9.250;2023-04-25T14:36:54;10.90;99.90
16267;DHT22;8241;48.786;9.250;2023-04-25T14:39:21;10.70;99.90
16267;DHT22;8241;48.786;9.250;2023-04-25T14:41:49;10.70;99.90
16267;DHT22;8241;48.786;9.250;2023-04-25T14:44:16;10.70;99.90
16267;DHT22;8241;48.786;9.250;2023-04-25T14:46:43;10.70;99.90
16267;DHT22;8241;48.786;9.250;2023-04-25T14:49:10;10.70;99.90
16267;DHT22;8241;48.786;9.250;2023-04-25T14:51:38;10.80;99.90
16267;DHT22;8241;48.786;9.250;2023-04-25T14:54:05;10.90;99.90
16267;DHT22;8241;48.786;9.250;2023-04-25T14:56:32;10.90;99.90
16267;DHT22;8241;48.786;9.250;2023-04-25T14:59:00;10.80;99.90
16267;DHT22;8241;48.786;9.250;2023-04-25T15:01:27;10.80;99.90
16267;DHT22;8241;48.786;9.250;2023-04-25T15:03:54;10.80;99.90
16267;DHT22;8241;48.786;9.250;2023-04-25T15:06:27;10.90;99.90
16267;DHT22;8241;48.786;9.250;2023-04-25T15:08:55;11.10;99.90
16267;DHT22;8241;48.786;9.250;2023-04-25T15:11:25;11.20;99.90
16267;DHT22;8241;48.786;9.250;2023-04-25T15:13:52;11.30;99.90
16267;DHT22;8241;48.786;9.250;2023-04-25T15:16:21;11.20;99.90
16267;DHT22;8241;48.786;9.250;2023-04-25T15:18:48;11.10;99.90
16267;DHT22;8241;48.786;9.250;2023-04-25T15:21:15;11.00;99.90
16267;DHT22;8241;48.786;9.250;2023-04-25T15:23:42;10.80;99.90
16267;DHT22;8241;48.786;9.250;2023-04-25T15:26:13;10.90;99.90
16267;DHT22;8241;48.786;9.250;2023-04-25T15:28:44;11.20;99.90
16267;DHT22;8241;48.786;9.250;2023-04-25T15:31:11;11.60;99.90
16267;DHT22;8241;48.786;9.250;2023-04-25T15:33:39;11.70;99.90
16267;DHT22;8241;48.786;9.250;2023-04-25T15:36:06;11.70;99.90
16267;DHT22;8241;48.786;9.250;2023-04-25T15:38:34;11.50;99.90
16267;DHT22;8241;48.786;9.250;2023-04-25T15:41:01;11.40;99.90
16267;DHT22;8241;48.786;9.250;2023-04-25T15:43:28;11.30;99.90
16267;DHT22;8241;48.786;9.250;2023-04-25T15:45:54;11.30;99.90
16267;DHT22;8241;48.786;9.250;2023-04-25T15:48:21;11.20;99.90
16267;DHT22;8241;48.786;9.250;2023-04-25T15:50:50;11.20;99.90
16267;DHT22;8241;48.786;9.250;2023-04-25T15:53:16;11.10;99.90
16267;DHT22;8241;48.786;9.250;2023-04-25T15:55:44;10.90;99.90
16267;DHT22;8241;48.786;9.250;2023-04-25T15:58:12;10.90;99.90
16267;DHT22;8241;48.786;9.250;2023-04-25T16:00:39;10.80;99.90
16267;DHT22;8241;48.786;9.250;2023-04-25T16:03:06;10.80;99.90
16267;DHT22;8241;48.786;9.250;2023-04-25T16:05:33;10.70;99.90
16267;DHT22;8241;48.786;9.250;2023-04-25T16:08:04;10.80;99.90
16267;DHT22;8241;48.786;9.250;2023-04-25T16:10:32;10.90;99.90
16267;DHT22;8241;48.786;9.250;2023-04-25T16:13:00;10.90;99.90
16267;DHT22;8241;48.786;9.250;2023-04-25T16:15:27;11.00;99.90
16267;DHT22;8241;48.786;9.250;2023-04-25T16:17:56;10.90;99.90
16267;DHT22;8241;48.786;9.250;2023-04-25T16:20:23;11.00;99.90
16267;DHT22;8241;48.786;9.250;2023-04-25T16:22:50;11.00;99.90